Fortunia — V2OG3 — position and weather

sailwx.info

Track history (hours):
 
Tides and Currents Weather Stations Pressure Air Temp Water Temp Dewpoint Dewpoint Depression Visibility Wind Speed Wind Dir Waves Ship Positions

Fortunia

Last reported at 2014-Nov-19 11:33 UTC. Time now 2014-Nov-22 00:23 UTC.
Position N 36°46' E 003°04'.

Length 121 m; draft 7.4 m.

Type: Ship. MMSI: 304010638.

Date/timePositionNaut miles runAvg speedWind from/ knotsBaromVisibWave heightAir tempDewpointWater temp
2014-Nov-19 11:33N 36°46' E 003°04'2 0.5
2014-Nov-19 08:04N 36°46' E 003°07'0 0.0
2014-Nov-19 06:33N 36°46' E 003°07'  
2014-Nov-16 10:33N 38°52' E 002°24'1010.2
2014-Nov-16 09:33N 39°01' E 002°20'1010.0
2014-Nov-16 08:33N 39°11' E 002°17'1010.1
2014-Nov-16 07:33N 39°21' E 002°14'1110.0
2014-Nov-16 06:25N 39°32' E 002°11'9 9.9
2014-Nov-16 05:33N 39°41' E 002°10'10 9.8
2014-Nov-16 04:34N 39°50' E 002°10'10 9.9
2014-Nov-16 03:33N 40°00' E 002°10'1010.0
2014-Nov-16 02:33N 40°10' E 002°10'10 9.9
2014-Nov-16 01:33N 40°20' E 002°11'10 9.7
2014-Nov-16 00:33N 40°30' E 002°11'9 9.3
2014-Nov-15 23:33N 40°39' E 002°11'10 9.9
2014-Nov-15 22:33N 40°49' E 002°10'1010.2
2014-Nov-15 21:32N 40°59' E 002°10'19 9.1
2014-Nov-15 19:27N 41°18' E 002°09'0 0.1
2014-Nov-15 17:17N 41°19' E 002°09'2 0.4
2014-Nov-15 13:26N 41°20' E 002°10'2 0.1
2014-Nov-15 00:26N 41°21' E 002°10'5 1.8
2014-Nov-14 21:32N 41°17' E 002°12'1 1.2
2014-Nov-14 20:33N 41°16' E 002°11'13 9.3
2014-Nov-14 19:09N 41°06' E 002°00'610.3
2014-Nov-14 18:33N 41°01' E 001°56'1010.4
2014-Nov-14 17:33N 40°53' E 001°47'1010.0
2014-Nov-14 16:30N 40°44' E 001°39'1010.0
2014-Nov-14 15:33N 40°37' E 001°31'10 9.9
2014-Nov-14 14:33N 40°29' E 001°23'2110.6
2014-Nov-14 12:33N 40°17' E 001°00'1110.5
2014-Nov-14 11:33N 40°10' E 000°49'1310.4
2014-Nov-14 10:18N 40°03' E 000°35'4110.7
2014-Nov-14 06:29N 39°35' W 000°04'1010.8
2014-Nov-14 05:34N 39°28' W 000°13'5 5.0
2014-Nov-14 04:33N 39°27' W 000°19'0 0.0
2014-Nov-14 03:08N 39°27' W 000°19'0 0.0
2014-Nov-14 02:17N 39°27' W 000°19'0 0.0
2014-Nov-14 01:11N 39°27' W 000°19'1 1.9
2014-Nov-14 00:34N 39°26' W 000°19'0 0.0
2014-Nov-13 23:32N 39°26' W 000°19'0 0.0
2014-Nov-13 22:32N 39°26' W 000°19'0 0.0
2014-Nov-13 21:29N 39°26' W 000°19'0 0.0
2014-Nov-13 20:25N 39°26' W 000°19'0 0.0
2014-Nov-13 19:31N 39°26' W 000°19'0 0.0
2014-Nov-13 18:33N 39°26' W 000°19'0 0.0
2014-Nov-13 17:33N 39°26' W 000°19'0 0.0
2014-Nov-13 16:32N 39°26' W 000°19'0 0.0
2014-Nov-13 15:32N 39°26' W 000°19'0 0.0
2014-Nov-13 14:31N 39°26' W 000°19'89 8.1
2014-Nov-13 03:32N 37°57' W 000°10'1010.3
2014-Nov-13 02:33N 37°49' W 000°17'1010.2
2014-Nov-13 01:33N 37°41' W 000°24'10 9.9
2014-Nov-13 00:33N 37°33' W 000°31'9 9.1
2014-Nov-12 23:32N 37°31' W 000°43'13 1.8
2014-Nov-12 16:11N 37°35' W 000°59'2 3.4
2014-Nov-12 15:33N 37°33' W 000°58'9 9.0
2014-Nov-12 14:34N 37°30' W 000°48'1110.7
2014-Nov-12 13:33N 37°28' W 000°34'1110.4
2014-Nov-12 12:32N 37°26' W 000°21'1010.6
2014-Nov-12 11:33N 37°25' W 000°08'  
Track history (hours):
 
Tides and Currents Weather Stations Pressure Air Temp Water Temp Dewpoint Dewpoint Depression Visibility Wind Speed Wind Dir Waves Ship Positions

Fortunia

Last reported at 2014-Nov-19 11:33 UTC. Time now 2014-Nov-22 00:23 UTC.
Position N 36°46' E 003°04'.

Length 121 m; draft 7.4 m.

Type: Ship. MMSI: 304010638.

Date/timePositionNaut miles runAvg speedWind from/ knotsBaromVisibWave heightAir tempDewpointWater temp
2014-Nov-19 11:33N 36°46' E 003°04'2 0.5
2014-Nov-19 08:04N 36°46' E 003°07'0 0.0
2014-Nov-19 06:33N 36°46' E 003°07'  
2014-Nov-16 10:33N 38°52' E 002°24'1010.2
2014-Nov-16 09:33N 39°01' E 002°20'1010.0
2014-Nov-16 08:33N 39°11' E 002°17'1010.1
2014-Nov-16 07:33N 39°21' E 002°14'1110.0
2014-Nov-16 06:25N 39°32' E 002°11'9 9.9
2014-Nov-16 05:33N 39°41' E 002°10'10 9.8
2014-Nov-16 04:34N 39°50' E 002°10'10 9.9
2014-Nov-16 03:33N 40°00' E 002°10'1010.0
2014-Nov-16 02:33N 40°10' E 002°10'10 9.9
2014-Nov-16 01:33N 40°20' E 002°11'10 9.7
2014-Nov-16 00:33N 40°30' E 002°11'9 9.3
2014-Nov-15 23:33N 40°39' E 002°11'10 9.9
2014-Nov-15 22:33N 40°49' E 002°10'1010.2
2014-Nov-15 21:32N 40°59' E 002°10'19 9.1
2014-Nov-15 19:27N 41°18' E 002°09'0 0.1
2014-Nov-15 17:17N 41°19' E 002°09'2 0.4
2014-Nov-15 13:26N 41°20' E 002°10'2 0.1
2014-Nov-15 00:26N 41°21' E 002°10'5 1.8
2014-Nov-14 21:32N 41°17' E 002°12'1 1.2
2014-Nov-14 20:33N 41°16' E 002°11'13 9.3
2014-Nov-14 19:09N 41°06' E 002°00'610.3
2014-Nov-14 18:33N 41°01' E 001°56'1010.4
2014-Nov-14 17:33N 40°53' E 001°47'1010.0
2014-Nov-14 16:30N 40°44' E 001°39'1010.0
2014-Nov-14 15:33N 40°37' E 001°31'10 9.9
2014-Nov-14 14:33N 40°29' E 001°23'2110.6
2014-Nov-14 12:33N 40°17' E 001°00'1110.5
2014-Nov-14 11:33N 40°10' E 000°49'1310.4
2014-Nov-14 10:18N 40°03' E 000°35'4110.7
2014-Nov-14 06:29N 39°35' W 000°04'1010.8
2014-Nov-14 05:34N 39°28' W 000°13'5 5.0
2014-Nov-14 04:33N 39°27' W 000°19'0 0.0
2014-Nov-14 03:08N 39°27' W 000°19'0 0.0
2014-Nov-14 02:17N 39°27' W 000°19'0 0.0
2014-Nov-14 01:11N 39°27' W 000°19'1 1.9
2014-Nov-14 00:34N 39°26' W 000°19'0 0.0
2014-Nov-13 23:32N 39°26' W 000°19'0 0.0
2014-Nov-13 22:32N 39°26' W 000°19'0 0.0
2014-Nov-13 21:29N 39°26' W 000°19'0 0.0
2014-Nov-13 20:25N 39°26' W 000°19'0 0.0
2014-Nov-13 19:31N 39°26' W 000°19'0 0.0
2014-Nov-13 18:33N 39°26' W 000°19'0 0.0
2014-Nov-13 17:33N 39°26' W 000°19'0 0.0
2014-Nov-13 16:32N 39°26' W 000°19'0 0.0
2014-Nov-13 15:32N 39°26' W 000°19'0 0.0
2014-Nov-13 14:31N 39°26' W 000°19'89 8.1
2014-Nov-13 03:32N 37°57' W 000°10'1010.3
2014-Nov-13 02:33N 37°49' W 000°17'1010.2
2014-Nov-13 01:33N 37°41' W 000°24'10 9.9
2014-Nov-13 00:33N 37°33' W 000°31'9 9.1
2014-Nov-12 23:32N 37°31' W 000°43'13 1.8
2014-Nov-12 16:11N 37°35' W 000°59'2 3.4
2014-Nov-12 15:33N 37°33' W 000°58'9 9.0
2014-Nov-12 14:34N 37°30' W 000°48'1110.7
2014-Nov-12 13:33N 37°28' W 000°34'1110.4
2014-Nov-12 12:32N 37°26' W 000°21'1010.6
2014-Nov-12 11:33N 37°25' W 000°08'  

Dump ship's entire track history